sensor_id;sensor_type;location;lat;lon;timestamp;P1;durP1;ratioP1;P2;durP2;ratioP2
16407;SDS011;8313;49.894;8.084;2023-04-10T00:01:38;7.70;;;5.40;;
16407;SDS011;8313;49.894;8.084;2023-04-10T00:04:04;6.03;;;5.10;;
16407;SDS011;8313;49.894;8.084;2023-04-10T00:06:30;7.87;;;5.90;;
16407;SDS011;8313;49.894;8.084;2023-04-10T00:08:57;10.37;;;6.13;;
16407;SDS011;8313;49.894;8.084;2023-04-10T00:11:23;7.23;;;5.40;;
16407;SDS011;8313;49.894;8.084;2023-04-10T00:13:49;8.23;;;5.63;;
16407;SDS011;8313;49.894;8.084;2023-04-10T00:16:15;6.23;;;5.20;;
16407;SDS011;8313;49.894;8.084;2023-04-10T00:18:41;7.20;;;5.53;;
16407;SDS011;8313;49.894;8.084;2023-04-10T00:21:06;7.93;;;5.70;;
16407;SDS011;8313;49.894;8.084;2023-04-10T00:23:32;8.10;;;5.80;;
16407;SDS011;8313;49.894;8.084;2023-04-10T00:25:59;7.60;;;5.80;;
16407;SDS011;8313;49.894;8.084;2023-04-10T00:28:25;8.10;;;6.13;;
16407;SDS011;8313;49.894;8.084;2023-04-10T00:30:51;6.73;;;5.53;;
16407;SDS011;8313;49.894;8.084;2023-04-10T00:33:16;6.80;;;5.80;;
16407;SDS011;8313;49.894;8.084;2023-04-10T00:35:42;9.23;;;5.50;;
16407;SDS011;8313;49.894;8.084;2023-04-10T00:38:08;10.50;;;6.10;;
16407;SDS011;8313;49.894;8.084;2023-04-10T00:40:34;8.97;;;6.07;;
16407;SDS011;8313;49.894;8.084;2023-04-10T00:42:59;8.40;;;5.97;;
16407;SDS011;8313;49.894;8.084;2023-04-10T00:45:25;9.70;;;5.80;;
16407;SDS011;8313;49.894;8.084;2023-04-10T00:47:51;9.63;;;6.87;;
16407;SDS011;8313;49.894;8.084;2023-04-10T00:50:18;10.33;;;5.83;;
16407;SDS011;8313;49.894;8.084;2023-04-10T00:52:45;8.73;;;5.63;;
16407;SDS011;8313;49.894;8.084;2023-04-10T00:55:10;8.70;;;5.40;;
16407;SDS011;8313;49.894;8.084;2023-04-10T00:57:36;10.03;;;6.07;;
16407;SDS011;8313;49.894;8.084;2023-04-10T01:00:02;7.20;;;5.03;;
16407;SDS011;8313;49.894;8.084;2023-04-10T01:02:29;8.80;;;5.83;;
16407;SDS011;8313;49.894;8.084;2023-04-10T01:04:56;7.80;;;5.53;;
16407;SDS011;8313;49.894;8.084;2023-04-10T01:12:46;7.27;;;5.70;;
16407;SDS011;8313;49.894;8.084;2023-04-10T01:15:20;6.47;;;5.30;;
16407;SDS011;8313;49.894;8.084;2023-04-10T01:17:49;8.20;;;5.13;;
16407;SDS011;8313;49.894;8.084;2023-04-10T01:20:23;9.97;;;5.90;;
16407;SDS011;8313;49.894;8.084;2023-04-10T01:25:47;10.47;;;6.40;;
16407;SDS011;8313;49.894;8.084;2023-04-10T01:31:51;8.27;;;5.13;;
16407;SDS011;8313;49.894;8.084;2023-04-10T01:34:20;6.40;;;5.40;;
16407;SDS011;8313;49.894;8.084;2023-04-10T01:39:23;9.50;;;5.27;;
16407;SDS011;8313;49.894;8.084;2023-04-10T01:41:52;7.87;;;5.57;;
16407;SDS011;8313;49.894;8.084;2023-04-10T01:44:31;9.27;;;6.10;;
16407;SDS011;8313;49.894;8.084;2023-04-10T01:46:58;7.60;;;5.60;;
16407;SDS011;8313;49.894;8.084;2023-04-10T01:49:26;8.47;;;5.37;;
16407;SDS011;8313;49.894;8.084;2023-04-10T01:52:01;7.23;;;5.20;;
16407;SDS011;8313;49.894;8.084;2023-04-10T01:54:28;8.40;;;5.43;;
16407;SDS011;8313;49.894;8.084;2023-04-10T01:56:57;7.70;;;5.23;;
16407;SDS011;8313;49.894;8.084;2023-04-10T01:59:24;7.37;;;5.73;;
16407;SDS011;8313;49.894;8.084;2023-04-10T02:02:00;12.10;;;6.47;;
16407;SDS011;8313;49.894;8.084;2023-04-10T02:04:26;8.73;;;5.80;;
16407;SDS011;8313;49.894;8.084;2023-04-10T02:12:23;9.90;;;6.00;;
16407;SDS011;8313;49.894;8.084;2023-04-10T02:14:54;6.57;;;4.90;;
16407;SDS011;8313;49.894;8.084;2023-04-10T02:17:28;8.13;;;5.40;;
16407;SDS011;8313;49.894;8.084;2023-04-10T02:19:57;10.40;;;6.40;;
16407;SDS011;8313;49.894;8.084;2023-04-10T02:22:24;10.23;;;6.30;;
16407;SDS011;8313;49.894;8.084;2023-04-10T02:24:51;10.87;;;6.33;;
16407;SDS011;8313;49.894;8.084;2023-04-10T02:27:36;7.53;;;5.80;;
16407;SDS011;8313;49.894;8.084;2023-04-10T02:30:02;7.00;;;4.73;;
16407;SDS011;8313;49.894;8.084;2023-04-10T02:32:31;9.97;;;6.37;;
16407;SDS011;8313;49.894;8.084;2023-04-10T02:34:57;7.87;;;5.40;;
16407;SDS011;8313;49.894;8.084;2023-04-10T02:37:23;9.03;;;6.17;;
16407;SDS011;8313;49.894;8.084;2023-04-10T02:39:51;9.43;;;6.60;;
16407;SDS011;8313;49.894;8.084;2023-04-10T02:42:21;7.70;;;5.63;;
16407;SDS011;8313;49.894;8.084;2023-04-10T02:44:47;9.20;;;6.27;;
16407;SDS011;8313;49.894;8.084;2023-04-10T02:47:13;9.37;;;6.83;;
16407;SDS011;8313;49.894;8.084;2023-04-10T02:49:43;8.37;;;6.47;;
16407;SDS011;8313;49.894;8.084;2023-04-10T02:52:12;11.90;;;8.13;;
16407;SDS011;8313;49.894;8.084;2023-04-10T02:54:38;10.23;;;6.37;;
16407;SDS011;8313;49.894;8.084;2023-04-10T02:57:04;10.50;;;6.47;;
16407;SDS011;8313;49.894;8.084;2023-04-10T02:59:30;10.90;;;6.37;;
16407;SDS011;8313;49.894;8.084;2023-04-10T03:01:57;8.70;;;6.20;;
16407;SDS011;8313;49.894;8.084;2023-04-10T03:04:23;6.47;;;5.47;;
16407;SDS011;8313;49.894;8.084;2023-04-10T03:06:48;9.53;;;6.93;;
16407;SDS011;8313;49.894;8.084;2023-04-10T03:09:14;8.67;;;6.90;;
16407;SDS011;8313;49.894;8.084;2023-04-10T03:11:40;10.27;;;7.03;;
16407;SDS011;8313;49.894;8.084;2023-04-10T03:14:06;10.70;;;6.40;;
16407;SDS011;8313;49.894;8.084;2023-04-10T03:16:34;10.00;;;5.90;;
16407;SDS011;8313;49.894;8.084;2023-04-10T03:19:02;9.87;;;6.50;;
16407;SDS011;8313;49.894;8.084;2023-04-10T03:21:28;10.20;;;7.07;;
16407;SDS011;8313;49.894;8.084;2023-04-10T03:23:54;11.30;;;7.80;;
16407;SDS011;8313;49.894;8.084;2023-04-10T03:26:20;12.83;;;7.27;;
16407;SDS011;8313;49.894;8.084;2023-04-10T03:28:48;14.90;;;7.27;;
16407;SDS011;8313;49.894;8.084;2023-04-10T03:31:13;11.70;;;7.30;;
16407;SDS011;8313;49.894;8.084;2023-04-10T03:33:41;10.20;;;6.77;;
16407;SDS011;8313;49.894;8.084;2023-04-10T03:36:07;10.73;;;6.30;;
16407;SDS011;8313;49.894;8.084;2023-04-10T03:38:33;8.90;;;6.87;;
16407;SDS011;8313;49.894;8.084;2023-04-10T03:40:58;8.97;;;6.47;;
16407;SDS011;8313;49.894;8.084;2023-04-10T03:43:28;11.70;;;7.50;;
16407;SDS011;8313;49.894;8.084;2023-04-10T03:45:55;11.27;;;7.03;;
16407;SDS011;8313;49.894;8.084;2023-04-10T03:48:21;12.13;;;7.70;;
16407;SDS011;8313;49.894;8.084;2023-04-10T03:50:47;12.37;;;7.93;;
16407;SDS011;8313;49.894;8.084;2023-04-10T03:53:13;8.97;;;6.67;;
16407;SDS011;8313;49.894;8.084;2023-04-10T03:55:41;13.67;;;7.63;;
16407;SDS011;8313;49.894;8.084;2023-04-10T03:58:07;9.57;;;6.60;;
16407;SDS011;8313;49.894;8.084;2023-04-10T04:00:34;9.40;;;6.60;;
16407;SDS011;8313;49.894;8.084;2023-04-10T04:03:09;11.07;;;7.23;;
16407;SDS011;8313;49.894;8.084;2023-04-10T04:05:59;10.97;;;6.73;;
16407;SDS011;8313;49.894;8.084;2023-04-10T04:08:51;7.70;;;5.77;;
16407;SDS011;8313;49.894;8.084;2023-04-10T04:11:36;9.37;;;6.33;;
16407;SDS011;8313;49.894;8.084;2023-04-10T04:14:21;8.37;;;6.23;;
16407;SDS011;8313;49.894;8.084;2023-04-10T04:16:58;11.13;;;7.03;;
16407;SDS011;8313;49.894;8.084;2023-04-10T04:19:43;10.60;;;6.97;;
16407;SDS011;8313;49.894;8.084;2023-04-10T04:22:16;10.83;;;6.63;;
16407;SDS011;8313;49.894;8.084;2023-04-10T04:25:01;8.70;;;6.70;;
16407;SDS011;8313;49.894;8.084;2023-04-10T04:27:47;9.07;;;6.33;;
16407;SDS011;8313;49.894;8.084;2023-04-10T04:30:36;10.43;;;6.80;;
16407;SDS011;8313;49.894;8.084;2023-04-10T04:33:28;9.57;;;5.73;;
16407;SDS011;8313;49.894;8.084;2023-04-10T04:36:00;7.33;;;5.43;;
16407;SDS011;8313;49.894;8.084;2023-04-10T04:38:40;9.03;;;5.80;;
16407;SDS011;8313;49.894;8.084;2023-04-10T04:41:06;11.77;;;6.70;;
16407;SDS011;8313;49.894;8.084;2023-04-10T04:43:50;12.53;;;7.07;;
16407;SDS011;8313;49.894;8.084;2023-04-10T04:46:26;10.90;;;6.27;;
16407;SDS011;8313;49.894;8.084;2023-04-10T04:49:09;10.53;;;7.20;;
16407;SDS011;8313;49.894;8.084;2023-04-10T04:51:48;9.67;;;6.20;;
16407;SDS011;8313;49.894;8.084;2023-04-10T04:54:28;7.53;;;5.30;;
16407;SDS011;8313;49.894;8.084;2023-04-10T04:57:15;9.27;;;5.27;;
16407;SDS011;8313;49.894;8.084;2023-04-10T05:00:02;10.10;;;6.93;;
16407;SDS011;8313;49.894;8.084;2023-04-10T05:02:49;14.13;;;7.07;;
16407;SDS011;8313;49.894;8.084;2023-04-10T05:05:47;9.70;;;6.10;;
16407;SDS011;8313;49.894;8.084;2023-04-10T05:08:26;11.60;;;5.87;;
16407;SDS011;8313;49.894;8.084;2023-04-10T05:11:03;7.50;;;5.67;;
16407;SDS011;8313;49.894;8.084;2023-04-10T05:13:51;11.73;;;7.27;;
16407;SDS011;8313;49.894;8.084;2023-04-10T05:16:52;6.90;;;5.27;;
16407;SDS011;8313;49.894;8.084;2023-04-10T05:19:38;10.47;;;6.23;;
16407;SDS011;8313;49.894;8.084;2023-04-10T05:22:26;13.20;;;7.27;;
16407;SDS011;8313;49.894;8.084;2023-04-10T05:25:11;9.73;;;6.03;;
16407;SDS011;8313;49.894;8.084;2023-04-10T05:27:55;10.97;;;6.23;;
16407;SDS011;8313;49.894;8.084;2023-04-10T05:30:48;18.83;;;10.20;;
16407;SDS011;8313;49.894;8.084;2023-04-10T05:33:40;22.67;;;11.60;;
16407;SDS011;8313;49.894;8.084;2023-04-10T05:36:11;18.40;;;11.70;;
16407;SDS011;8313;49.894;8.084;2023-04-10T05:38:50;16.57;;;10.70;;
16407;SDS011;8313;49.894;8.084;2023-04-10T05:41:36;16.63;;;10.23;;
16407;SDS011;8313;49.894;8.084;2023-04-10T05:44:18;14.10;;;8.93;;
16407;SDS011;8313;49.894;8.084;2023-04-10T05:47:01;14.90;;;8.40;;
16407;SDS011;8313;49.894;8.084;2023-04-10T05:49:32;14.90;;;8.80;;
16407;SDS011;8313;49.894;8.084;2023-04-10T05:52:20;12.17;;;7.60;;
16407;SDS011;8313;49.894;8.084;2023-04-10T05:55:04;11.50;;;7.83;;
16407;SDS011;8313;49.894;8.084;2023-04-10T05:57:39;10.13;;;6.70;;
16407;SDS011;8313;49.894;8.084;2023-04-10T06:00:24;9.43;;;7.43;;
16407;SDS011;8313;49.894;8.084;2023-04-10T06:03:28;12.37;;;6.90;;
16407;SDS011;8313;49.894;8.084;2023-04-10T06:05:59;9.90;;;7.40;;
16407;SDS011;8313;49.894;8.084;2023-04-10T06:08:28;12.40;;;8.10;;
16407;SDS011;8313;49.894;8.084;2023-04-10T06:10:53;9.87;;;5.83;;
16407;SDS011;8313;49.894;8.084;2023-04-10T06:13:19;10.73;;;6.97;;
16407;SDS011;8313;49.894;8.084;2023-04-10T06:15:46;13.13;;;7.40;;
16407;SDS011;8313;49.894;8.084;2023-04-10T06:18:11;9.80;;;6.60;;
16407;SDS011;8313;49.894;8.084;2023-04-10T06:20:37;11.93;;;6.10;;
16407;SDS011;8313;49.894;8.084;2023-04-10T06:23:03;12.30;;;7.03;;
16407;SDS011;8313;49.894;8.084;2023-04-10T06:25:29;10.20;;;6.70;;
16407;SDS011;8313;49.894;8.084;2023-04-10T06:27:57;11.00;;;7.10;;
16407;SDS011;8313;49.894;8.084;2023-04-10T06:30:23;8.93;;;6.20;;
16407;SDS011;8313;49.894;8.084;2023-04-10T06:32:49;12.63;;;7.80;;
16407;SDS011;8313;49.894;8.084;2023-04-10T06:35:15;10.73;;;6.70;;
16407;SDS011;8313;49.894;8.084;2023-04-10T06:37:41;11.13;;;6.10;;
16407;SDS011;8313;49.894;8.084;2023-04-10T06:40:07;12.80;;;7.20;;
16407;SDS011;8313;49.894;8.084;2023-04-10T06:42:35;9.17;;;6.50;;
16407;SDS011;8313;49.894;8.084;2023-04-10T06:45:07;7.70;;;6.20;;
16407;SDS011;8313;49.894;8.084;2023-04-10T06:47:33;10.90;;;7.10;;
16407;SDS011;8313;49.894;8.084;2023-04-10T06:49:59;11.47;;;6.90;;
16407;SDS011;8313;49.894;8.084;2023-04-10T06:52:25;12.03;;;7.13;;
16407;SDS011;8313;49.894;8.084;2023-04-10T06:54:51;8.67;;;6.13;;
16407;SDS011;8313;49.894;8.084;2023-04-10T06:57:16;12.63;;;7.57;;
16407;SDS011;8313;49.894;8.084;2023-04-10T06:59:43;7.73;;;6.47;;
16407;SDS011;8313;49.894;8.084;2023-04-10T07:02:09;9.33;;;5.60;;
16407;SDS011;8313;49.894;8.084;2023-04-10T07:04:35;11.90;;;5.90;;
16407;SDS011;8313;49.894;8.084;2023-04-10T07:07:02;9.27;;;6.23;;
16407;SDS011;8313;49.894;8.084;2023-04-10T07:09:28;10.00;;;7.00;;
16407;SDS011;8313;49.894;8.084;2023-04-10T07:11:54;9.30;;;7.43;;
16407;SDS011;8313;49.894;8.084;2023-04-10T07:14:20;8.33;;;6.20;;
16407;SDS011;8313;49.894;8.084;2023-04-10T07:16:47;10.03;;;6.60;;
16407;SDS011;8313;49.894;8.084;2023-04-10T07:19:13;9.17;;;6.67;;
16407;SDS011;8313;49.894;8.084;2023-04-10T07:21:39;11.13;;;7.47;;
16407;SDS011;8313;49.894;8.084;2023-04-10T07:24:05;10.27;;;5.70;;
16407;SDS011;8313;49.894;8.084;2023-04-10T07:26:31;11.33;;;6.33;;
16407;SDS011;8313;49.894;8.084;2023-04-10T07:28:57;9.50;;;5.83;;
16407;SDS011;8313;49.894;8.084;2023-04-10T07:31:23;12.27;;;6.80;;
16407;SDS011;8313;49.894;8.084;2023-04-10T07:33:49;8.23;;;5.73;;
16407;SDS011;8313;49.894;8.084;2023-04-10T07:36:15;12.33;;;7.70;;
16407;SDS011;8313;49.894;8.084;2023-04-10T07:38:41;8.90;;;6.03;;
16407;SDS011;8313;49.894;8.084;2023-04-10T07:41:07;13.40;;;7.60;;
16407;SDS011;8313;49.894;8.084;2023-04-10T07:43:36;18.20;;;7.97;;
16407;SDS011;8313;49.894;8.084;2023-04-10T07:46:01;13.60;;;7.50;;
16407;SDS011;8313;49.894;8.084;2023-04-10T07:48:27;14.77;;;7.50;;
16407;SDS011;8313;49.894;8.084;2023-04-10T07:50:53;9.73;;;6.37;;
16407;SDS011;8313;49.894;8.084;2023-04-10T07:53:19;12.60;;;7.47;;
16407;SDS011;8313;49.894;8.084;2023-04-10T07:55:44;12.57;;;6.70;;
16407;SDS011;8313;49.894;8.084;2023-04-10T07:58:13;10.23;;;6.80;;
16407;SDS011;8313;49.894;8.084;2023-04-10T08:00:40;11.70;;;7.10;;
16407;SDS011;8313;49.894;8.084;2023-04-10T08:03:06;10.00;;;6.90;;
16407;SDS011;8313;49.894;8.084;2023-04-10T08:05:32;10.23;;;6.80;;
16407;SDS011;8313;49.894;8.084;2023-04-10T08:07:58;12.50;;;8.20;;
16407;SDS011;8313;49.894;8.084;2023-04-10T08:10:24;10.93;;;7.20;;
16407;SDS011;8313;49.894;8.084;2023-04-10T08:12:49;8.70;;;6.20;;
16407;SDS011;8313;49.894;8.084;2023-04-10T08:15:16;11.23;;;7.13;;
16407;SDS011;8313;49.894;8.084;2023-04-10T08:17:42;11.50;;;7.33;;
16407;SDS011;8313;49.894;8.084;2023-04-10T08:20:10;9.63;;;6.97;;
16407;SDS011;8313;49.894;8.084;2023-04-10T08:22:36;9.43;;;7.07;;
16407;SDS011;8313;49.894;8.084;2023-04-10T08:25:03;9.07;;;5.53;;
16407;SDS011;8313;49.894;8.084;2023-04-10T08:27:29;12.63;;;7.20;;
16407;SDS011;8313;49.894;8.084;2023-04-10T08:29:55;8.70;;;6.50;;
16407;SDS011;8313;49.894;8.084;2023-04-10T08:32:21;8.97;;;6.33;;
16407;SDS011;8313;49.894;8.084;2023-04-10T08:34:48;10.90;;;6.60;;
16407;SDS011;8313;49.894;8.084;2023-04-10T08:37:13;10.70;;;6.37;;
16407;SDS011;8313;49.894;8.084;2023-04-10T08:39:40;12.90;;;7.43;;
16407;SDS011;8313;49.894;8.084;2023-04-10T08:42:06;11.10;;;6.60;;
16407;SDS011;8313;49.894;8.084;2023-04-10T08:44:32;8.50;;;6.13;;
16407;SDS011;8313;49.894;8.084;2023-04-10T08:46:59;10.03;;;6.30;;
16407;SDS011;8313;49.894;8.084;2023-04-10T08:49:36;10.47;;;6.87;;
16407;SDS011;8313;49.894;8.084;2023-04-10T08:52:12;9.10;;;6.00;;
16407;SDS011;8313;49.894;8.084;2023-04-10T08:54:43;11.00;;;7.10;;
16407;SDS011;8313;49.894;8.084;2023-04-10T08:57:15;9.87;;;6.30;;
16407;SDS011;8313;49.894;8.084;2023-04-10T08:59:44;9.40;;;5.80;;
16407;SDS011;8313;49.894;8.084;2023-04-10T09:02:15;8.33;;;5.67;;
16407;SDS011;8313;49.894;8.084;2023-04-10T09:04:48;8.30;;;5.90;;
16407;SDS011;8313;49.894;8.084;2023-04-10T09:07:15;7.30;;;5.80;;
16407;SDS011;8313;49.894;8.084;2023-04-10T09:09:42;6.30;;;4.63;;
16407;SDS011;8313;49.894;8.084;2023-04-10T09:12:08;7.03;;;5.77;;
16407;SDS011;8313;49.894;8.084;2023-04-10T09:14:35;7.13;;;5.40;;
16407;SDS011;8313;49.894;8.084;2023-04-10T09:17:17;8.33;;;5.70;;
16407;SDS011;8313;49.894;8.084;2023-04-10T09:19:45;5.67;;;4.33;;
16407;SDS011;8313;49.894;8.084;2023-04-10T09:22:12;5.70;;;4.40;;
16407;SDS011;8313;49.894;8.084;2023-04-10T09:24:39;8.97;;;5.87;;
16407;SDS011;8313;49.894;8.084;2023-04-10T09:27:06;7.50;;;5.33;;
16407;SDS011;8313;49.894;8.084;2023-04-10T09:29:43;8.97;;;6.30;;
16407;SDS011;8313;49.894;8.084;2023-04-10T09:32:12;8.43;;;5.50;;
16407;SDS011;8313;49.894;8.084;2023-04-10T09:34:50;7.33;;;5.23;;
16407;SDS011;8313;49.894;8.084;2023-04-10T09:37:21;7.20;;;5.40;;
16407;SDS011;8313;49.894;8.084;2023-04-10T09:39:47;8.27;;;5.40;;
16407;SDS011;8313;49.894;8.084;2023-04-10T09:42:12;7.97;;;5.63;;
16407;SDS011;8313;49.894;8.084;2023-04-10T09:44:39;8.70;;;5.80;;
16407;SDS011;8313;49.894;8.084;2023-04-10T09:47:21;8.90;;;5.90;;
16407;SDS011;8313;49.894;8.084;2023-04-10T09:52:20;7.20;;;5.63;;
16407;SDS011;8313;49.894;8.084;2023-04-10T09:54:48;8.83;;;4.70;;
16407;SDS011;8313;49.894;8.084;2023-04-10T09:57:15;8.80;;;6.70;;
16407;SDS011;8313;49.894;8.084;2023-04-10T09:59:47;10.57;;;8.13;;
16407;SDS011;8313;49.894;8.084;2023-04-10T10:02:15;8.00;;;5.60;;
16407;SDS011;8313;49.894;8.084;2023-04-10T10:04:42;6.47;;;4.70;;
16407;SDS011;8313;49.894;8.084;2023-04-10T10:07:10;7.13;;;4.93;;
16407;SDS011;8313;49.894;8.084;2023-04-10T10:09:37;7.37;;;4.77;;
16407;SDS011;8313;49.894;8.084;2023-04-10T10:12:03;7.90;;;5.70;;
16407;SDS011;8313;49.894;8.084;2023-04-10T10:14:29;6.70;;;5.50;;
16407;SDS011;8313;49.894;8.084;2023-04-10T10:17:00;7.00;;;5.30;;
16407;SDS011;8313;49.894;8.084;2023-04-10T10:19:46;6.60;;;5.40;;
16407;SDS011;8313;49.894;8.084;2023-04-10T10:22:20;5.60;;;4.80;;
16407;SDS011;8313;49.894;8.084;2023-04-10T10:24:48;6.53;;;4.50;;
16407;SDS011;8313;49.894;8.084;2023-04-10T10:27:20;6.93;;;5.00;;
16407;SDS011;8313;49.894;8.084;2023-04-10T10:29:48;7.90;;;4.97;;
16407;SDS011;8313;49.894;8.084;2023-04-10T10:32:16;6.70;;;5.10;;
16407;SDS011;8313;49.894;8.084;2023-04-10T10:34:43;4.70;;;4.17;;
16407;SDS011;8313;49.894;8.084;2023-04-10T10:37:10;6.30;;;4.57;;
16407;SDS011;8313;49.894;8.084;2023-04-10T10:42:40;5.03;;;4.43;;
16407;SDS011;8313;49.894;8.084;2023-04-10T10:48:08;7.30;;;3.90;;
16407;SDS011;8313;49.894;8.084;2023-04-10T10:53:39;4.70;;;3.70;;
16407;SDS011;8313;49.894;8.084;2023-04-10T10:58:48;4.63;;;4.20;;
16407;SDS011;8313;49.894;8.084;2023-04-10T11:01:19;4.47;;;4.00;;
16407;SDS011;8313;49.894;8.084;2023-04-10T11:03:46;5.50;;;4.33;;
16407;SDS011;8313;49.894;8.084;2023-04-10T11:06:47;5.10;;;4.60;;
16407;SDS011;8313;49.894;8.084;2023-04-10T11:12:13;4.13;;;3.73;;
16407;SDS011;8313;49.894;8.084;2023-04-10T11:14:41;6.63;;;4.03;;
16407;SDS011;8313;49.894;8.084;2023-04-10T11:17:08;3.93;;;3.43;;
16407;SDS011;8313;49.894;8.084;2023-04-10T11:19:55;4.30;;;3.90;;
16407;SDS011;8313;49.894;8.084;2023-04-10T11:22:26;3.80;;;3.43;;
16407;SDS011;8313;49.894;8.084;2023-04-10T11:24:53;4.30;;;3.40;;
16407;SDS011;8313;49.894;8.084;2023-04-10T11:27:37;4.93;;;4.07;;
16407;SDS011;8313;49.894;8.084;2023-04-10T11:30:06;3.60;;;3.20;;
16407;SDS011;8313;49.894;8.084;2023-04-10T11:33:00;7.03;;;5.50;;
16407;SDS011;8313;49.894;8.084;2023-04-10T11:35:26;4.57;;;4.17;;
16407;SDS011;8313;49.894;8.084;2023-04-10T11:38:12;3.13;;;2.83;;
16407;SDS011;8313;49.894;8.084;2023-04-10T11:40:58;7.50;;;3.50;;
16407;SDS011;8313;49.894;8.084;2023-04-10T11:43:29;3.73;;;3.40;;
16407;SDS011;8313;49.894;8.084;2023-04-10T11:46:05;3.60;;;3.30;;
16407;SDS011;8313;49.894;8.084;2023-04-10T11:48:32;3.67;;;2.93;;
16407;SDS011;8313;49.894;8.084;2023-04-10T11:50:58;3.27;;;2.97;;
16407;SDS011;8313;49.894;8.084;2023-04-10T11:53:30;4.43;;;3.47;;
16407;SDS011;8313;49.894;8.084;2023-04-10T11:55:56;4.90;;;3.87;;
16407;SDS011;8313;49.894;8.084;2023-04-10T12:01:03;3.40;;;3.10;;
16407;SDS011;8313;49.894;8.084;2023-04-10T12:03:36;3.67;;;3.30;;
16407;SDS011;8313;49.894;8.084;2023-04-10T12:06:11;4.40;;;3.20;;
16407;SDS011;8313;49.894;8.084;2023-04-10T12:08:39;3.90;;;3.50;;
16407;SDS011;8313;49.894;8.084;2023-04-10T12:11:07;4.53;;;3.33;;
16407;SDS011;8313;49.894;8.084;2023-04-10T12:13:34;3.87;;;3.37;;
16407;SDS011;8313;49.894;8.084;2023-04-10T12:16:00;3.77;;;3.40;;
16407;SDS011;8313;49.894;8.084;2023-04-10T12:18:28;5.30;;;3.57;;
16407;SDS011;8313;49.894;8.084;2023-04-10T12:20:55;3.43;;;3.00;;
16407;SDS011;8313;49.894;8.084;2023-04-10T12:23:25;3.40;;;2.87;;
16407;SDS011;8313;49.894;8.084;2023-04-10T12:26:04;3.20;;;2.90;;
16407;SDS011;8313;49.894;8.084;2023-04-10T12:28:41;4.07;;;3.27;;
16407;SDS011;8313;49.894;8.084;2023-04-10T12:31:14;4.63;;;3.20;;
16407;SDS011;8313;49.894;8.084;2023-04-10T12:33:46;3.57;;;3.13;;
16407;SDS011;8313;49.894;8.084;2023-04-10T12:36:22;3.50;;;2.80;;
16407;SDS011;8313;49.894;8.084;2023-04-10T12:38:48;4.07;;;3.67;;
16407;SDS011;8313;49.894;8.084;2023-04-10T12:41:19;3.77;;;3.43;;
16407;SDS011;8313;49.894;8.084;2023-04-10T12:44:04;3.60;;;3.10;;
16407;SDS011;8313;49.894;8.084;2023-04-10T12:46:38;4.50;;;3.30;;
16407;SDS011;8313;49.894;8.084;2023-04-10T12:49:12;4.50;;;3.97;;
16407;SDS011;8313;49.894;8.084;2023-04-10T12:54:08;3.00;;;2.80;;
16407;SDS011;8313;49.894;8.084;2023-04-10T12:56:43;3.67;;;3.10;;
16407;SDS011;8313;49.894;8.084;2023-04-10T12:59:11;3.50;;;3.20;;
16407;SDS011;8313;49.894;8.084;2023-04-10T13:01:37;2.93;;;2.70;;
16407;SDS011;8313;49.894;8.084;2023-04-10T13:04:03;3.70;;;2.50;;
16407;SDS011;8313;49.894;8.084;2023-04-10T13:06:29;2.97;;;2.67;;
16407;SDS011;8313;49.894;8.084;2023-04-10T13:08:55;3.27;;;2.97;;
16407;SDS011;8313;49.894;8.084;2023-04-10T13:11:21;3.80;;;3.40;;
16407;SDS011;8313;49.894;8.084;2023-04-10T13:13:48;3.17;;;2.87;;
16407;SDS011;8313;49.894;8.084;2023-04-10T13:16:14;3.17;;;2.87;;
16407;SDS011;8313;49.894;8.084;2023-04-10T13:18:40;3.50;;;2.83;;
16407;SDS011;8313;49.894;8.084;2023-04-10T13:21:06;4.23;;;3.00;;
16407;SDS011;8313;49.894;8.084;2023-04-10T13:23:32;2.97;;;2.70;;
16407;SDS011;8313;49.894;8.084;2023-04-10T13:25:57;2.90;;;2.70;;
16407;SDS011;8313;49.894;8.084;2023-04-10T13:28:23;3.20;;;2.90;;
16407;SDS011;8313;49.894;8.084;2023-04-10T13:30:49;2.83;;;2.63;;
16407;SDS011;8313;49.894;8.084;2023-04-10T13:33:16;2.90;;;2.70;;
16407;SDS011;8313;49.894;8.084;2023-04-10T13:35:41;4.17;;;3.00;;
16407;SDS011;8313;49.894;8.084;2023-04-10T13:38:07;3.57;;;3.17;;
16407;SDS011;8313;49.894;8.084;2023-04-10T13:40:36;2.50;;;2.30;;
16407;SDS011;8313;49.894;8.084;2023-04-10T13:43:01;3.00;;;2.70;;
16407;SDS011;8313;49.894;8.084;2023-04-10T13:45:27;2.77;;;2.53;;
16407;SDS011;8313;49.894;8.084;2023-04-10T13:47:53;2.63;;;2.43;;
16407;SDS011;8313;49.894;8.084;2023-04-10T13:50:19;5.00;;;2.40;;
16407;SDS011;8313;49.894;8.084;2023-04-10T13:52:44;3.43;;;2.87;;
16407;SDS011;8313;49.894;8.084;2023-04-10T13:55:10;3.70;;;2.87;;
16407;SDS011;8313;49.894;8.084;2023-04-10T13:57:36;5.93;;;3.17;;
16407;SDS011;8313;49.894;8.084;2023-04-10T14:00:02;2.67;;;2.47;;
16407;SDS011;8313;49.894;8.084;2023-04-10T14:02:37;3.67;;;3.03;;
16407;SDS011;8313;49.894;8.084;2023-04-10T14:05:03;2.57;;;2.37;;
16407;SDS011;8313;49.894;8.084;2023-04-10T14:07:29;3.07;;;2.80;;
16407;SDS011;8313;49.894;8.084;2023-04-10T14:09:55;2.53;;;2.33;;
16407;SDS011;8313;49.894;8.084;2023-04-10T14:12:21;4.23;;;2.67;;
16407;SDS011;8313;49.894;8.084;2023-04-10T14:14:47;3.27;;;2.97;;
16407;SDS011;8313;49.894;8.084;2023-04-10T14:17:12;2.80;;;2.60;;
16407;SDS011;8313;49.894;8.084;2023-04-10T14:19:38;3.60;;;2.87;;
16407;SDS011;8313;49.894;8.084;2023-04-10T14:22:04;2.83;;;2.63;;
16407;SDS011;8313;49.894;8.084;2023-04-10T14:24:30;2.70;;;2.50;;
16407;SDS011;8313;49.894;8.084;2023-04-10T14:26:55;2.80;;;2.13;;
16407;SDS011;8313;49.894;8.084;2023-04-10T14:29:24;3.57;;;2.73;;
16407;SDS011;8313;49.894;8.084;2023-04-10T14:31:50;2.93;;;2.67;;
16407;SDS011;8313;49.894;8.084;2023-04-10T14:34:16;3.23;;;2.20;;
16407;SDS011;8313;49.894;8.084;2023-04-10T14:36:42;3.27;;;2.83;;
16407;SDS011;8313;49.894;8.084;2023-04-10T14:39:07;2.00;;;1.90;;
16407;SDS011;8313;49.894;8.084;2023-04-10T14:41:33;2.13;;;1.93;;
16407;SDS011;8313;49.894;8.084;2023-04-10T14:43:59;2.40;;;2.20;;
16407;SDS011;8313;49.894;8.084;2023-04-10T14:46:25;2.00;;;1.87;;
16407;SDS011;8313;49.894;8.084;2023-04-10T14:48:51;2.13;;;1.93;;
16407;SDS011;8313;49.894;8.084;2023-04-10T14:51:17;2.00;;;1.83;;
16407;SDS011;8313;49.894;8.084;2023-04-10T14:53:43;3.00;;;2.27;;
16407;SDS011;8313;49.894;8.084;2023-04-10T14:56:16;2.40;;;2.00;;
16407;SDS011;8313;49.894;8.084;2023-04-10T14:58:42;2.30;;;2.10;;
16407;SDS011;8313;49.894;8.084;2023-04-10T15:01:11;2.50;;;2.30;;
16407;SDS011;8313;49.894;8.084;2023-04-10T15:03:37;2.23;;;2.13;;
16407;SDS011;8313;49.894;8.084;2023-04-10T15:06:04;2.03;;;1.83;;
16407;SDS011;8313;49.894;8.084;2023-04-10T15:08:30;2.50;;;2.30;;
16407;SDS011;8313;49.894;8.084;2023-04-10T15:10:55;3.17;;;2.30;;
16407;SDS011;8313;49.894;8.084;2023-04-10T15:13:21;2.60;;;2.40;;
16407;SDS011;8313;49.894;8.084;2023-04-10T15:15:47;2.80;;;2.10;;
16407;SDS011;8313;49.894;8.084;2023-04-10T15:18:13;3.53;;;2.37;;
16407;SDS011;8313;49.894;8.084;2023-04-10T15:20:40;2.33;;;2.13;;
16407;SDS011;8313;49.894;8.084;2023-04-10T15:23:05;2.60;;;2.33;;
16407;SDS011;8313;49.894;8.084;2023-04-10T15:25:32;3.03;;;2.13;;
16407;SDS011;8313;49.894;8.084;2023-04-10T15:27:58;2.93;;;2.63;;
16407;SDS011;8313;49.894;8.084;2023-04-10T15:30:37;2.37;;;2.17;;
16407;SDS011;8313;49.894;8.084;2023-04-10T15:33:02;1.67;;;1.57;;
16407;SDS011;8313;49.894;8.084;2023-04-10T15:35:28;2.43;;;2.23;;
16407;SDS011;8313;49.894;8.084;2023-04-10T15:37:55;2.10;;;1.80;;
16407;SDS011;8313;49.894;8.084;2023-04-10T15:40:21;2.40;;;2.20;;
16407;SDS011;8313;49.894;8.084;2023-04-10T15:42:47;1.97;;;1.87;;
16407;SDS011;8313;49.894;8.084;2023-04-10T15:45:12;2.13;;;1.93;;
16407;SDS011;8313;49.894;8.084;2023-04-10T15:47:38;1.60;;;1.50;;
16407;SDS011;8313;49.894;8.084;2023-04-10T15:50:04;2.30;;;2.10;;
16407;SDS011;8313;49.894;8.084;2023-04-10T15:52:30;1.93;;;1.70;;
16407;SDS011;8313;49.894;8.084;2023-04-10T15:54:57;2.30;;;2.07;;
16407;SDS011;8313;49.894;8.084;2023-04-10T15:57:23;2.70;;;1.97;;